sensor_id;sensor_type;location;lat;lon;timestamp;P1;durP1;ratioP1;P2;durP2;ratioP2
16137;SDS011;8174;43.550;5.206;2022-10-19T00:00:49;131.75;;;35.30;;
16137;SDS011;8174;43.550;5.206;2022-10-19T00:03:17;119.55;;;34.35;;
16137;SDS011;8174;43.550;5.206;2022-10-19T00:05:44;96.45;;;31.70;;
16137;SDS011;8174;43.550;5.206;2022-10-19T00:08:12;77.25;;;31.35;;
16137;SDS011;8174;43.550;5.206;2022-10-19T00:10:39;75.65;;;30.27;;
16137;SDS011;8174;43.550;5.206;2022-10-19T00:13:07;70.53;;;29.50;;
16137;SDS011;8174;43.550;5.206;2022-10-19T00:15:38;65.95;;;29.15;;
16137;SDS011;8174;43.550;5.206;2022-10-19T00:18:05;61.67;;;28.43;;
16137;SDS011;8174;43.550;5.206;2022-10-19T00:20:34;58.35;;;26.63;;
16137;SDS011;8174;43.550;5.206;2022-10-19T00:23:02;56.57;;;27.83;;
16137;SDS011;8174;43.550;5.206;2022-10-19T00:25:30;50.70;;;26.23;;
16137;SDS011;8174;43.550;5.206;2022-10-19T00:27:57;50.00;;;25.70;;
16137;SDS011;8174;43.550;5.206;2022-10-19T00:30:24;45.30;;;25.75;;
16137;SDS011;8174;43.550;5.206;2022-10-19T00:32:53;51.22;;;26.17;;
16137;SDS011;8174;43.550;5.206;2022-10-19T00:35:21;47.10;;;27.57;;
16137;SDS011;8174;43.550;5.206;2022-10-19T00:37:48;55.85;;;28.73;;
16137;SDS011;8174;43.550;5.206;2022-10-19T00:40:16;47.33;;;27.57;;
16137;SDS011;8174;43.550;5.206;2022-10-19T00:42:43;49.40;;;29.77;;
16137;SDS011;8174;43.550;5.206;2022-10-19T00:45:12;56.03;;;30.90;;
16137;SDS011;8174;43.550;5.206;2022-10-19T00:47:41;61.88;;;32.70;;
16137;SDS011;8174;43.550;5.206;2022-10-19T00:50:10;54.33;;;29.33;;
16137;SDS011;8174;43.550;5.206;2022-10-19T00:52:39;51.03;;;28.73;;
16137;SDS011;8174;43.550;5.206;2022-10-19T00:55:07;68.33;;;32.20;;
16137;SDS011;8174;43.550;5.206;2022-10-19T00:57:35;75.60;;;33.00;;
16137;SDS011;8174;43.550;5.206;2022-10-19T01:00:04;76.03;;;32.92;;
16137;SDS011;8174;43.550;5.206;2022-10-19T01:02:33;67.82;;;31.25;;
16137;SDS011;8174;43.550;5.206;2022-10-19T01:05:00;100.30;;;34.80;;
16137;SDS011;8174;43.550;5.206;2022-10-19T01:07:29;118.97;;;36.92;;
16137;SDS011;8174;43.550;5.206;2022-10-19T01:09:57;101.83;;;36.33;;
16137;SDS011;8174;43.550;5.206;2022-10-19T01:12:32;111.93;;;36.00;;
16137;SDS011;8174;43.550;5.206;2022-10-19T01:15:04;106.60;;;37.00;;
16137;SDS011;8174;43.550;5.206;2022-10-19T01:17:35;116.63;;;37.03;;
16137;SDS011;8174;43.550;5.206;2022-10-19T01:23:03;96.47;;;34.58;;
16137;SDS011;8174;43.550;5.206;2022-10-19T01:25:35;92.13;;;34.33;;
16137;SDS011;8174;43.550;5.206;2022-10-19T01:28:12;111.97;;;35.40;;
16137;SDS011;8174;43.550;5.206;2022-10-19T01:30:45;107.10;;;33.97;;
16137;SDS011;8174;43.550;5.206;2022-10-19T01:33:21;117.60;;;33.63;;
16137;SDS011;8174;43.550;5.206;2022-10-19T01:35:52;100.47;;;31.92;;
16137;SDS011;8174;43.550;5.206;2022-10-19T01:38:25;102.10;;;33.43;;
16137;SDS011;8174;43.550;5.206;2022-10-19T01:40:55;71.57;;;31.30;;
16137;SDS011;8174;43.550;5.206;2022-10-19T01:43:28;85.80;;;32.33;;
16137;SDS011;8174;43.550;5.206;2022-10-19T01:46:00;85.28;;;32.13;;
16137;SDS011;8174;43.550;5.206;2022-10-19T01:48:31;61.75;;;28.58;;
16137;SDS011;8174;43.550;5.206;2022-10-19T01:51:00;81.13;;;31.90;;
16137;SDS011;8174;43.550;5.206;2022-10-19T01:53:41;83.85;;;30.20;;
16137;SDS011;8174;43.550;5.206;2022-10-19T01:56:10;76.13;;;28.67;;
16137;SDS011;8174;43.550;5.206;2022-10-19T01:58:38;94.38;;;32.33;;
16137;SDS011;8174;43.550;5.206;2022-10-19T02:01:08;68.43;;;30.45;;
16137;SDS011;8174;43.550;5.206;2022-10-19T02:03:37;94.95;;;30.80;;
16137;SDS011;8174;43.550;5.206;2022-10-19T02:06:06;126.38;;;32.60;;
16137;SDS011;8174;43.550;5.206;2022-10-19T02:08:36;123.88;;;31.77;;
16137;SDS011;8174;43.550;5.206;2022-10-19T02:11:05;163.32;;;32.47;;
16137;SDS011;8174;43.550;5.206;2022-10-19T02:13:32;92.13;;;31.23;;
16137;SDS011;8174;43.550;5.206;2022-10-19T02:16:01;151.27;;;32.97;;
16137;SDS011;8174;43.550;5.206;2022-10-19T02:18:32;120.37;;;30.10;;
16137;SDS011;8174;43.550;5.206;2022-10-19T02:21:01;171.57;;;33.73;;
16137;SDS011;8174;43.550;5.206;2022-10-19T02:23:29;163.40;;;33.70;;
16137;SDS011;8174;43.550;5.206;2022-10-19T02:25:57;167.53;;;33.07;;
16137;SDS011;8174;43.550;5.206;2022-10-19T02:28:24;151.38;;;33.63;;
16137;SDS011;8174;43.550;5.206;2022-10-19T02:30:52;180.75;;;35.47;;
16137;SDS011;8174;43.550;5.206;2022-10-19T02:33:20;149.13;;;33.37;;
16137;SDS011;8174;43.550;5.206;2022-10-19T02:35:49;161.53;;;35.43;;
16137;SDS011;8174;43.550;5.206;2022-10-19T02:38:19;205.70;;;39.33;;
16137;SDS011;8174;43.550;5.206;2022-10-19T02:40:48;161.10;;;38.13;;
16137;SDS011;8174;43.550;5.206;2022-10-19T02:43:18;126.97;;;36.67;;
16137;SDS011;8174;43.550;5.206;2022-10-19T13:58:57;25.35;;;5.85;;
16137;SDS011;8174;43.550;5.206;2022-10-19T14:01:39;22.63;;;6.35;;
16137;SDS011;8174;43.550;5.206;2022-10-19T14:04:13;21.58;;;5.72;;
16137;SDS011;8174;43.550;5.206;2022-10-19T14:06:43;27.08;;;6.38;;
16137;SDS011;8174;43.550;5.206;2022-10-19T14:12:05;25.73;;;5.53;;
16137;SDS011;8174;43.550;5.206;2022-10-19T14:14:39;20.50;;;5.50;;
16137;SDS011;8174;43.550;5.206;2022-10-19T14:17:15;24.55;;;5.65;;
16137;SDS011;8174;43.550;5.206;2022-10-19T14:19:48;24.42;;;5.97;;
16137;SDS011;8174;43.550;5.206;2022-10-19T14:22:18;20.10;;;5.32;;
16137;SDS011;8174;43.550;5.206;2022-10-19T14:24:48;23.10;;;6.00;;
16137;SDS011;8174;43.550;5.206;2022-10-19T14:27:17;22.95;;;5.80;;
16137;SDS011;8174;43.550;5.206;2022-10-19T14:29:48;19.33;;;5.93;;
16137;SDS011;8174;43.550;5.206;2022-10-19T14:32:17;19.00;;;5.40;;
16137;SDS011;8174;43.550;5.206;2022-10-19T14:34:47;21.45;;;5.43;;
16137;SDS011;8174;43.550;5.206;2022-10-19T14:37:16;26.83;;;8.27;;
16137;SDS011;8174;43.550;5.206;2022-10-19T14:39:56;21.55;;;6.13;;
16137;SDS011;8174;43.550;5.206;2022-10-19T14:42:23;22.33;;;6.13;;
16137;SDS011;8174;43.550;5.206;2022-10-19T14:44:52;28.55;;;6.50;;
16137;SDS011;8174;43.550;5.206;2022-10-19T14:47:27;27.77;;;7.45;;
16137;SDS011;8174;43.550;5.206;2022-10-19T14:49:55;20.30;;;8.35;;
16137;SDS011;8174;43.550;5.206;2022-10-19T14:52:26;25.08;;;6.97;;
16137;SDS011;8174;43.550;5.206;2022-10-19T14:54:55;26.27;;;7.78;;
16137;SDS011;8174;43.550;5.206;2022-10-19T14:57:24;20.77;;;8.10;;
16137;SDS011;8174;43.550;5.206;2022-10-19T14:59:54;24.85;;;8.52;;
16137;SDS011;8174;43.550;5.206;2022-10-19T15:02:23;28.88;;;9.15;;
16137;SDS011;8174;43.550;5.206;2022-10-19T15:04:52;31.20;;;7.68;;
16137;SDS011;8174;43.550;5.206;2022-10-19T15:07:22;23.23;;;6.38;;
16137;SDS011;8174;43.550;5.206;2022-10-19T15:09:51;19.23;;;6.55;;
16137;SDS011;8174;43.550;5.206;2022-10-19T15:12:21;29.60;;;6.43;;
16137;SDS011;8174;43.550;5.206;2022-10-19T15:14:49;25.25;;;7.07;;
16137;SDS011;8174;43.550;5.206;2022-10-19T15:17:23;21.17;;;6.82;;
16137;SDS011;8174;43.550;5.206;2022-10-19T15:19:50;23.75;;;6.43;;
16137;SDS011;8174;43.550;5.206;2022-10-19T15:22:20;28.05;;;7.50;;
16137;SDS011;8174;43.550;5.206;2022-10-19T15:27:37;27.80;;;7.15;;
16137;SDS011;8174;43.550;5.206;2022-10-19T15:30:21;22.20;;;6.28;;
16137;SDS011;8174;43.550;5.206;2022-10-19T15:32:51;30.65;;;7.65;;
16137;SDS011;8174;43.550;5.206;2022-10-19T15:35:22;24.73;;;7.45;;
16137;SDS011;8174;43.550;5.206;2022-10-19T15:37:57;27.33;;;8.80;;
16137;SDS011;8174;43.550;5.206;2022-10-19T15:40:27;23.67;;;7.82;;
16137;SDS011;8174;43.550;5.206;2022-10-19T15:42:56;22.23;;;7.25;;
16137;SDS011;8174;43.550;5.206;2022-10-19T15:45:31;24.80;;;7.65;;
16137;SDS011;8174;43.550;5.206;2022-10-19T15:50:49;18.88;;;6.88;;
16137;SDS011;8174;43.550;5.206;2022-10-19T15:53:17;27.70;;;7.03;;
16137;SDS011;8174;43.550;5.206;2022-10-19T15:55:45;27.27;;;7.50;;
16137;SDS011;8174;43.550;5.206;2022-10-19T15:58:13;25.35;;;6.30;;
16137;SDS011;8174;43.550;5.206;2022-10-19T16:00:40;29.90;;;6.65;;
16137;SDS011;8174;43.550;5.206;2022-10-19T16:03:08;23.65;;;7.63;;
16137;SDS011;8174;43.550;5.206;2022-10-19T16:05:35;25.17;;;8.57;;
16137;SDS011;8174;43.550;5.206;2022-10-19T16:08:05;21.45;;;7.40;;
16137;SDS011;8174;43.550;5.206;2022-10-19T16:10:32;32.28;;;7.88;;
16137;SDS011;8174;43.550;5.206;2022-10-19T16:13:00;25.05;;;7.88;;
16137;SDS011;8174;43.550;5.206;2022-10-19T16:15:27;24.08;;;8.38;;
16137;SDS011;8174;43.550;5.206;2022-10-19T16:17:56;30.60;;;9.02;;
16137;SDS011;8174;43.550;5.206;2022-10-19T16:20:24;29.52;;;10.10;;
16137;SDS011;8174;43.550;5.206;2022-10-19T16:22:53;34.58;;;9.10;;
16137;SDS011;8174;43.550;5.206;2022-10-19T16:25:21;33.83;;;9.10;;
16137;SDS011;8174;43.550;5.206;2022-10-19T16:27:49;30.65;;;8.90;;
16137;SDS011;8174;43.550;5.206;2022-10-19T16:30:20;32.10;;;8.70;;
16137;SDS011;8174;43.550;5.206;2022-10-19T16:32:47;32.00;;;8.85;;
16137;SDS011;8174;43.550;5.206;2022-10-19T16:35:14;40.25;;;11.30;;
16137;SDS011;8174;43.550;5.206;2022-10-19T16:37:42;37.22;;;12.13;;
16137;SDS011;8174;43.550;5.206;2022-10-19T16:40:10;29.92;;;10.93;;
16137;SDS011;8174;43.550;5.206;2022-10-19T16:42:39;29.33;;;9.15;;
16137;SDS011;8174;43.550;5.206;2022-10-19T16:45:07;31.40;;;9.45;;
16137;SDS011;8174;43.550;5.206;2022-10-19T16:47:34;28.88;;;9.77;;
16137;SDS011;8174;43.550;5.206;2022-10-19T16:50:03;34.03;;;9.15;;
16137;SDS011;8174;43.550;5.206;2022-10-19T16:52:30;37.05;;;11.13;;
16137;SDS011;8174;43.550;5.206;2022-10-19T16:54:58;52.15;;;17.85;;
16137;SDS011;8174;43.550;5.206;2022-10-19T16:57:25;46.47;;;16.20;;
16137;SDS011;8174;43.550;5.206;2022-10-19T16:59:55;45.25;;;17.23;;
16137;SDS011;8174;43.550;5.206;2022-10-19T17:02:22;52.65;;;17.95;;
16137;SDS011;8174;43.550;5.206;2022-10-19T17:04:50;55.50;;;17.80;;
16137;SDS011;8174;43.550;5.206;2022-10-19T17:07:17;50.88;;;18.48;;
16137;SDS011;8174;43.550;5.206;2022-10-19T17:09:45;50.00;;;15.00;;
16137;SDS011;8174;43.550;5.206;2022-10-19T17:12:13;44.70;;;13.00;;
16137;SDS011;8174;43.550;5.206;2022-10-19T17:14:40;46.63;;;13.40;;
16137;SDS011;8174;43.550;5.206;2022-10-19T17:17:10;36.42;;;13.15;;
16137;SDS011;8174;43.550;5.206;2022-10-19T17:19:37;45.70;;;12.45;;
16137;SDS011;8174;43.550;5.206;2022-10-19T17:22:05;53.50;;;17.80;;
16137;SDS011;8174;43.550;5.206;2022-10-19T17:24:32;47.47;;;16.42;;
16137;SDS011;8174;43.550;5.206;2022-10-19T17:27:01;55.05;;;16.45;;
16137;SDS011;8174;43.550;5.206;2022-10-19T17:29:29;39.22;;;15.10;;
16137;SDS011;8174;43.550;5.206;2022-10-19T17:31:56;41.95;;;14.00;;
16137;SDS011;8174;43.550;5.206;2022-10-19T17:34:26;34.63;;;12.43;;
16137;SDS011;8174;43.550;5.206;2022-10-19T17:36:53;28.98;;;11.32;;
16137;SDS011;8174;43.550;5.206;2022-10-19T17:39:21;35.25;;;11.75;;
16137;SDS011;8174;43.550;5.206;2022-10-19T17:41:50;39.47;;;13.40;;
16137;SDS011;8174;43.550;5.206;2022-10-19T17:44:19;34.15;;;12.35;;
16137;SDS011;8174;43.550;5.206;2022-10-19T17:46:47;33.10;;;12.20;;
16137;SDS011;8174;43.550;5.206;2022-10-19T17:49:14;41.90;;;12.63;;
16137;SDS011;8174;43.550;5.206;2022-10-19T17:51:44;37.40;;;13.45;;
16137;SDS011;8174;43.550;5.206;2022-10-19T17:54:12;35.22;;;12.38;;
16137;SDS011;8174;43.550;5.206;2022-10-19T17:56:40;31.48;;;12.43;;
16137;SDS011;8174;43.550;5.206;2022-10-19T17:59:09;44.50;;;13.80;;
16137;SDS011;8174;43.550;5.206;2022-10-19T18:01:37;35.33;;;13.27;;
16137;SDS011;8174;43.550;5.206;2022-10-19T18:04:04;28.60;;;12.88;;
16137;SDS011;8174;43.550;5.206;2022-10-19T18:06:32;33.83;;;12.48;;
16137;SDS011;8174;43.550;5.206;2022-10-19T18:09:02;36.88;;;13.35;;
16137;SDS011;8174;43.550;5.206;2022-10-19T18:11:31;30.42;;;13.30;;
16137;SDS011;8174;43.550;5.206;2022-10-19T18:14:01;32.60;;;13.20;;
16137;SDS011;8174;43.550;5.206;2022-10-19T18:16:29;33.83;;;14.25;;
16137;SDS011;8174;43.550;5.206;2022-10-19T18:18:57;35.80;;;13.98;;
16137;SDS011;8174;43.550;5.206;2022-10-19T18:21:25;38.83;;;14.52;;
16137;SDS011;8174;43.550;5.206;2022-10-19T18:23:54;43.08;;;14.13;;
16137;SDS011;8174;43.550;5.206;2022-10-19T18:26:23;24.42;;;13.73;;
16137;SDS011;8174;43.550;5.206;2022-10-19T18:28:52;30.20;;;14.23;;
16137;SDS011;8174;43.550;5.206;2022-10-19T18:31:20;39.95;;;14.25;;
16137;SDS011;8174;43.550;5.206;2022-10-19T18:33:48;35.47;;;13.70;;
16137;SDS011;8174;43.550;5.206;2022-10-19T18:36:20;36.78;;;14.50;;
16137;SDS011;8174;43.550;5.206;2022-10-19T18:38:48;31.42;;;13.65;;
16137;SDS011;8174;43.550;5.206;2022-10-19T18:41:16;34.22;;;14.35;;
16137;SDS011;8174;43.550;5.206;2022-10-19T18:43:48;37.42;;;14.63;;
16137;SDS011;8174;43.550;5.206;2022-10-19T18:46:16;33.55;;;14.32;;
16137;SDS011;8174;43.550;5.206;2022-10-19T18:48:44;31.23;;;14.13;;
16137;SDS011;8174;43.550;5.206;2022-10-19T18:51:12;30.65;;;14.25;;
16137;SDS011;8174;43.550;5.206;2022-10-19T18:53:40;32.38;;;14.50;;
16137;SDS011;8174;43.550;5.206;2022-10-19T18:56:08;34.95;;;14.90;;
16137;SDS011;8174;43.550;5.206;2022-10-19T18:58:37;30.73;;;14.80;;
16137;SDS011;8174;43.550;5.206;2022-10-19T19:01:06;36.30;;;14.77;;
16137;SDS011;8174;43.550;5.206;2022-10-19T19:03:35;35.25;;;15.05;;
16137;SDS011;8174;43.550;5.206;2022-10-19T19:06:03;32.95;;;14.43;;
16137;SDS011;8174;43.550;5.206;2022-10-19T19:08:31;36.95;;;15.45;;
16137;SDS011;8174;43.550;5.206;2022-10-19T19:11:07;30.80;;;14.70;;
16137;SDS011;8174;43.550;5.206;2022-10-19T19:13:34;28.35;;;14.43;;
16137;SDS011;8174;43.550;5.206;2022-10-19T19:16:02;38.42;;;14.68;;
16137;SDS011;8174;43.550;5.206;2022-10-19T19:18:31;33.30;;;16.60;;
16137;SDS011;8174;43.550;5.206;2022-10-19T19:20:59;32.25;;;15.80;;
16137;SDS011;8174;43.550;5.206;2022-10-19T19:23:26;34.80;;;16.08;;
16137;SDS011;8174;43.550;5.206;2022-10-19T19:25:54;29.92;;;15.23;;
16137;SDS011;8174;43.550;5.206;2022-10-19T19:28:21;32.25;;;15.50;;
16137;SDS011;8174;43.550;5.206;2022-10-19T19:30:48;29.15;;;14.55;;
16137;SDS011;8174;43.550;5.206;2022-10-19T19:33:16;36.60;;;16.23;;
16137;SDS011;8174;43.550;5.206;2022-10-19T19:35:45;33.67;;;15.77;;
16137;SDS011;8174;43.550;5.206;2022-10-19T19:38:13;27.53;;;14.93;;
16137;SDS011;8174;43.550;5.206;2022-10-19T19:40:41;28.05;;;14.52;;
16137;SDS011;8174;43.550;5.206;2022-10-19T19:43:10;34.50;;;14.20;;
16137;SDS011;8174;43.550;5.206;2022-10-19T19:45:37;34.33;;;14.65;;
16137;SDS011;8174;43.550;5.206;2022-10-19T19:48:06;29.70;;;14.55;;
16137;SDS011;8174;43.550;5.206;2022-10-19T19:50:34;28.67;;;13.85;;
16137;SDS011;8174;43.550;5.206;2022-10-19T19:53:03;38.60;;;16.10;;
16137;SDS011;8174;43.550;5.206;2022-10-19T19:55:32;36.42;;;14.95;;
16137;SDS011;8174;43.550;5.206;2022-10-19T19:57:59;37.97;;;16.92;;
16137;SDS011;8174;43.550;5.206;2022-10-19T20:00:27;35.40;;;16.13;;
16137;SDS011;8174;43.550;5.206;2022-10-19T20:02:55;37.28;;;15.88;;
16137;SDS011;8174;43.550;5.206;2022-10-19T20:05:23;37.20;;;15.33;;
16137;SDS011;8174;43.550;5.206;2022-10-19T20:07:51;35.97;;;14.85;;
16137;SDS011;8174;43.550;5.206;2022-10-19T20:10:20;27.42;;;14.00;;
16137;SDS011;8174;43.550;5.206;2022-10-19T20:12:47;32.92;;;14.57;;
16137;SDS011;8174;43.550;5.206;2022-10-19T20:15:15;33.10;;;15.50;;
16137;SDS011;8174;43.550;5.206;2022-10-19T20:17:43;33.00;;;14.82;;
16137;SDS011;8174;43.550;5.206;2022-10-19T20:20:11;28.75;;;15.18;;
16137;SDS011;8174;43.550;5.206;2022-10-19T20:22:39;34.97;;;15.48;;
16137;SDS011;8174;43.550;5.206;2022-10-19T20:25:11;32.33;;;14.47;;
16137;SDS011;8174;43.550;5.206;2022-10-19T20:27:40;35.08;;;14.70;;
16137;SDS011;8174;43.550;5.206;2022-10-19T20:30:08;32.95;;;14.13;;
16137;SDS011;8174;43.550;5.206;2022-10-19T20:32:35;35.75;;;13.20;;
16137;SDS011;8174;43.550;5.206;2022-10-19T20:35:03;34.47;;;14.00;;
16137;SDS011;8174;43.550;5.206;2022-10-19T20:37:31;32.92;;;13.80;;
16137;SDS011;8174;43.550;5.206;2022-10-19T20:39:59;35.45;;;13.13;;
16137;SDS011;8174;43.550;5.206;2022-10-19T20:42:27;34.05;;;13.93;;
16137;SDS011;8174;43.550;5.206;2022-10-19T20:44:56;30.70;;;13.45;;
16137;SDS011;8174;43.550;5.206;2022-10-19T20:47:23;32.27;;;14.20;;
16137;SDS011;8174;43.550;5.206;2022-10-19T20:49:51;38.22;;;13.52;;
16137;SDS011;8174;43.550;5.206;2022-10-19T20:52:18;34.63;;;13.75;;
16137;SDS011;8174;43.550;5.206;2022-10-19T20:54:46;36.47;;;14.80;;
16137;SDS011;8174;43.550;5.206;2022-10-19T20:57:14;39.80;;;14.05;;
16137;SDS011;8174;43.550;5.206;2022-10-19T20:59:41;32.80;;;13.70;;
16137;SDS011;8174;43.550;5.206;2022-10-19T21:02:11;33.00;;;13.20;;
16137;SDS011;8174;43.550;5.206;2022-10-19T21:04:38;34.40;;;13.17;;
16137;SDS011;8174;43.550;5.206;2022-10-19T21:07:06;40.03;;;13.77;;
16137;SDS011;8174;43.550;5.206;2022-10-19T21:09:34;34.72;;;13.90;;
16137;SDS011;8174;43.550;5.206;2022-10-19T21:12:02;33.92;;;13.43;;
16137;SDS011;8174;43.550;5.206;2022-10-19T21:14:29;28.75;;;13.45;;
16137;SDS011;8174;43.550;5.206;2022-10-19T21:16:58;28.92;;;13.52;;
16137;SDS011;8174;43.550;5.206;2022-10-19T21:19:27;30.02;;;14.23;;
16137;SDS011;8174;43.550;5.206;2022-10-19T21:21:56;25.63;;;14.10;;
16137;SDS011;8174;43.550;5.206;2022-10-19T21:24:27;33.70;;;14.37;;
16137;SDS011;8174;43.550;5.206;2022-10-19T21:26:56;32.15;;;14.50;;
16137;SDS011;8174;43.550;5.206;2022-10-19T21:29:24;38.45;;;14.48;;
16137;SDS011;8174;43.550;5.206;2022-10-19T21:31:52;35.60;;;14.95;;
16137;SDS011;8174;43.550;5.206;2022-10-19T21:34:21;37.83;;;14.95;;
16137;SDS011;8174;43.550;5.206;2022-10-19T21:36:50;33.78;;;14.73;;
16137;SDS011;8174;43.550;5.206;2022-10-19T21:39:18;31.17;;;15.32;;
16137;SDS011;8174;43.550;5.206;2022-10-19T21:41:46;33.67;;;15.20;;
16137;SDS011;8174;43.550;5.206;2022-10-19T21:44:14;33.22;;;15.02;;
16137;SDS011;8174;43.550;5.206;2022-10-19T21:46:41;40.20;;;14.63;;
16137;SDS011;8174;43.550;5.206;2022-10-19T21:49:09;37.88;;;15.07;;
16137;SDS011;8174;43.550;5.206;2022-10-19T21:51:38;31.13;;;14.40;;
16137;SDS011;8174;43.550;5.206;2022-10-19T21:54:11;35.05;;;14.65;;
16137;SDS011;8174;43.550;5.206;2022-10-19T21:56:39;31.47;;;14.47;;
16137;SDS011;8174;43.550;5.206;2022-10-19T21:59:07;34.53;;;14.90;;
16137;SDS011;8174;43.550;5.206;2022-10-19T22:01:34;38.50;;;13.98;;
16137;SDS011;8174;43.550;5.206;2022-10-19T22:04:02;30.58;;;14.60;;
16137;SDS011;8174;43.550;5.206;2022-10-19T22:06:30;41.53;;;14.77;;
16137;SDS011;8174;43.550;5.206;2022-10-19T22:08:58;29.52;;;14.25;;
16137;SDS011;8174;43.550;5.206;2022-10-19T22:11:28;34.72;;;14.57;;
16137;SDS011;8174;43.550;5.206;2022-10-19T22:13:55;34.50;;;13.82;;
16137;SDS011;8174;43.550;5.206;2022-10-19T22:16:24;33.15;;;14.55;;
16137;SDS011;8174;43.550;5.206;2022-10-19T22:18:51;34.58;;;14.95;;
16137;SDS011;8174;43.550;5.206;2022-10-19T22:21:19;25.48;;;13.52;;
16137;SDS011;8174;43.550;5.206;2022-10-19T22:23:49;42.90;;;14.75;;
16137;SDS011;8174;43.550;5.206;2022-10-19T22:26:18;28.33;;;14.02;;
16137;SDS011;8174;43.550;5.206;2022-10-19T22:28:48;31.35;;;14.55;;
16137;SDS011;8174;43.550;5.206;2022-10-19T22:31:15;35.95;;;15.07;;
16137;SDS011;8174;43.550;5.206;2022-10-19T22:33:43;23.92;;;14.05;;
16137;SDS011;8174;43.550;5.206;2022-10-19T22:36:10;31.52;;;14.25;;
16137;SDS011;8174;43.550;5.206;2022-10-19T22:38:38;31.55;;;14.55;;
16137;SDS011;8174;43.550;5.206;2022-10-19T22:44:10;32.83;;;14.60;;
16137;SDS011;8174;43.550;5.206;2022-10-19T22:46:38;33.47;;;14.10;;
16137;SDS011;8174;43.550;5.206;2022-10-19T22:49:06;27.95;;;13.90;;
16137;SDS011;8174;43.550;5.206;2022-10-19T22:51:34;32.58;;;14.20;;
16137;SDS011;8174;43.550;5.206;2022-10-19T22:54:02;24.42;;;13.32;;
16137;SDS011;8174;43.550;5.206;2022-10-19T22:56:29;31.58;;;14.20;;
16137;SDS011;8174;43.550;5.206;2022-10-19T22:58:57;35.53;;;14.52;;
16137;SDS011;8174;43.550;5.206;2022-10-19T23:01:26;32.40;;;15.57;;
16137;SDS011;8174;43.550;5.206;2022-10-19T23:03:54;34.58;;;15.13;;
16137;SDS011;8174;43.550;5.206;2022-10-19T23:06:21;28.58;;;14.85;;
16137;SDS011;8174;43.550;5.206;2022-10-19T23:08:49;33.17;;;16.23;;
16137;SDS011;8174;43.550;5.206;2022-10-19T23:11:17;34.75;;;14.65;;
16137;SDS011;8174;43.550;5.206;2022-10-19T23:13:45;37.17;;;16.00;;
16137;SDS011;8174;43.550;5.206;2022-10-19T23:16:13;32.83;;;14.57;;
16137;SDS011;8174;43.550;5.206;2022-10-19T23:18:42;31.50;;;15.15;;
16137;SDS011;8174;43.550;5.206;2022-10-19T23:21:10;30.13;;;15.03;;
16137;SDS011;8174;43.550;5.206;2022-10-19T23:23:38;35.88;;;14.90;;
16137;SDS011;8174;43.550;5.206;2022-10-19T23:26:06;34.53;;;14.38;;
16137;SDS011;8174;43.550;5.206;2022-10-19T23:28:34;33.90;;;14.77;;
16137;SDS011;8174;43.550;5.206;2022-10-19T23:31:02;35.33;;;14.98;;
16137;SDS011;8174;43.550;5.206;2022-10-19T23:33:30;29.20;;;14.63;;
16137;SDS011;8174;43.550;5.206;2022-10-19T23:36:03;40.03;;;16.25;;
16137;SDS011;8174;43.550;5.206;2022-10-19T23:38:31;32.10;;;14.32;;
16137;SDS011;8174;43.550;5.206;2022-10-19T23:40:58;32.55;;;14.85;;
16137;SDS011;8174;43.550;5.206;2022-10-19T23:43:26;33.03;;;14.77;;
16137;SDS011;8174;43.550;5.206;2022-10-19T23:45:54;33.67;;;14.45;;
16137;SDS011;8174;43.550;5.206;2022-10-19T23:48:21;30.73;;;13.90;;
16137;SDS011;8174;43.550;5.206;2022-10-19T23:50:55;29.17;;;14.77;;
16137;SDS011;8174;43.550;5.206;2022-10-19T23:53:24;30.33;;;15.00;;
16137;SDS011;8174;43.550;5.206;2022-10-19T23:55:53;39.20;;;16.05;;
16137;SDS011;8174;43.550;5.206;2022-10-19T23:58:24;36.97;;;16.25;;
